createdAt,value
2018-04-16T00:01:34.975Z,66.14
2018-04-16T00:04:03.354Z,66.27
2018-04-16T00:06:31.824Z,66.38
2018-04-16T00:09:00.245Z,66.34
2018-04-16T00:11:28.645Z,66.25
2018-04-16T00:13:56.981Z,66.57
2018-04-16T00:16:25.358Z,66.62
2018-04-16T00:18:54.614Z,66.58
2018-04-16T00:21:23.776Z,66.58
2018-04-16T00:23:52.156Z,66.54
2018-04-16T00:26:20.516Z,66.52
2018-04-16T00:28:48.926Z,66.67
2018-04-16T00:31:17.319Z,66.68
2018-04-16T00:33:51.078Z,66.49
2018-04-16T00:36:19.803Z,66.60
2018-04-16T00:38:53.635Z,66.59
2018-04-16T00:41:27.660Z,66.53
2018-04-16T00:44:02.151Z,66.56
2018-04-16T00:46:35.979Z,66.55
2018-04-16T00:49:09.839Z,66.69
2018-04-16T00:51:43.861Z,66.69
2018-04-16T00:54:23.579Z,66.81
2018-04-16T00:56:58.155Z,66.89
2018-04-16T00:59:32.401Z,66.80
2018-04-16T01:02:07.891Z,66.92
2018-04-16T01:04:41.702Z,67.07
2018-04-16T01:07:15.572Z,67.20
2018-04-16T01:09:49.440Z,67.14
2018-04-16T01:12:23.771Z,67.14
2018-04-16T01:14:58.579Z,67.21
2018-04-16T01:20:42.077Z,67.28
2018-04-16T01:23:15.839Z,67.28
2018-04-16T01:25:49.839Z,67.26
2018-04-16T01:28:24.460Z,67.23
2018-04-16T01:30:58.360Z,67.24
2018-04-16T01:33:32.213Z,67.24
2018-04-16T01:36:07.004Z,67.43
2018-04-16T01:41:45.639Z,67.17
2018-04-16T01:44:19.611Z,67.02
2018-04-16T01:46:53.568Z,67.53
2018-04-16T01:49:27.421Z,67.62
2018-04-16T01:52:02.107Z,67.72
2018-04-16T01:54:36.142Z,67.58
2018-04-16T01:57:10.095Z,67.50
2018-04-16T01:59:43.925Z,67.64
2018-04-16T02:02:17.874Z,67.75
2018-04-16T02:04:53.259Z,67.66
2018-04-16T02:07:27.061Z,67.59
2018-04-16T02:10:00.858Z,67.62
2018-04-16T02:12:34.606Z,67.54
2018-04-16T02:18:17.380Z,67.82
2018-04-16T02:20:52.047Z,67.79
2018-04-16T02:23:25.816Z,67.65
2018-04-16T02:25:59.604Z,67.62
2018-04-16T02:28:34.432Z,67.58
2018-04-16T02:31:09.152Z,67.83
2018-04-16T02:33:43.071Z,67.71
2018-04-16T02:36:16.894Z,67.68
2018-04-16T02:38:51.482Z,67.64
2018-04-16T02:41:25.635Z,67.94
2018-04-16T02:43:59.607Z,68.10
2018-04-16T02:46:33.493Z,68.19
2018-04-16T02:49:07.319Z,68.03
2018-04-16T02:51:42.033Z,68.05
2018-04-16T02:54:16.128Z,68.54
2018-04-16T02:56:50.091Z,69.06
2018-04-16T02:59:24.730Z,68.99
2018-04-16T03:01:58.631Z,68.88
2018-04-16T03:04:33.257Z,68.92
2018-04-16T03:07:07.953Z,68.66
2018-04-16T03:09:41.779Z,68.50
2018-04-16T03:15:21.112Z,68.07
2018-04-16T03:17:55.020Z,68.26
2018-04-16T03:20:28.933Z,68.24
2018-04-16T03:23:02.735Z,68.43
2018-04-16T03:25:36.639Z,68.34
2018-04-16T03:28:10.563Z,68.51
2018-04-16T03:30:44.555Z,68.26
2018-04-16T03:33:18.451Z,68.47
2018-04-16T03:39:01.234Z,68.89
2018-04-16T03:41:35.937Z,68.96
2018-04-16T03:44:10.713Z,68.78
2018-04-16T03:46:44.732Z,68.84
2018-04-16T03:49:18.594Z,68.69
2018-04-16T03:51:52.523Z,68.79
2018-04-16T03:54:21.645Z,68.78
2018-04-16T03:56:49.995Z,68.57
2018-04-16T03:59:19.118Z,68.38
2018-04-16T04:01:47.561Z,68.48
2018-04-16T04:04:16.764Z,68.80
2018-04-16T04:06:45.863Z,68.81
2018-04-16T04:09:16.018Z,68.91
2018-04-16T04:11:44.391Z,68.88
2018-04-16T04:14:12.743Z,68.82
2018-04-16T04:16:41.918Z,68.75
2018-04-16T04:19:10.360Z,69.24
2018-04-16T04:21:38.763Z,69.54
2018-04-16T04:24:24.840Z,69.49
2018-04-16T04:27:11.751Z,69.22
2018-04-16T04:29:57.814Z,69.20
2018-04-16T04:32:26.947Z,69.45
2018-04-16T04:34:55.371Z,69.57
2018-04-16T04:37:23.834Z,69.57
2018-04-16T04:39:52.206Z,69.43
2018-04-16T04:42:21.178Z,69.75
2018-04-16T04:44:49.586Z,69.51
2018-04-16T04:47:17.938Z,69.22
2018-04-16T04:49:47.049Z,69.28
2018-04-16T04:52:16.285Z,69.23
2018-04-16T04:54:44.661Z,69.16
2018-04-16T04:57:13.795Z,69.11
2018-04-16T04:59:42.796Z,69.38
2018-04-16T05:02:11.227Z,69.18
2018-04-16T05:04:40.369Z,69.08
2018-04-16T05:07:08.724Z,69.18
2018-04-16T05:09:37.157Z,69.19
2018-04-16T05:12:05.528Z,69.64
2018-04-16T05:14:33.881Z,69.54
2018-04-16T05:17:02.473Z,69.33
2018-04-16T05:19:30.855Z,69.37
2018-04-16T05:21:59.286Z,69.46
2018-04-16T05:24:28.763Z,69.27
2018-04-16T05:26:58.572Z,69.35
2018-04-16T05:29:29.344Z,69.34
2018-04-16T05:31:57.826Z,69.32
2018-04-16T05:34:26.965Z,69.26
2018-04-16T05:36:56.235Z,69.22
2018-04-16T05:39:25.837Z,69.13
2018-04-16T05:41:54.295Z,69.18
2018-04-16T05:44:22.738Z,69.22
2018-04-16T05:46:51.701Z,69.25
2018-04-16T05:49:20.100Z,69.22
2018-04-16T05:51:48.618Z,68.91
2018-04-16T05:54:18.938Z,68.80
2018-04-16T05:56:48.141Z,68.72
2018-04-16T05:59:17.931Z,68.61
2018-04-16T06:01:46.772Z,68.44
2018-04-16T06:04:15.175Z,68.44
2018-04-16T06:06:43.586Z,68.52
2018-04-16T06:09:11.997Z,68.40
2018-04-16T06:11:41.118Z,67.99
2018-04-16T06:14:10.153Z,67.92
2018-04-16T06:16:38.528Z,67.74
2018-04-16T06:19:06.899Z,67.79
2018-04-16T06:21:35.278Z,67.83
2018-04-16T06:24:03.640Z,67.73
2018-04-16T06:26:32.768Z,67.68
2018-04-16T06:29:01.140Z,67.75
2018-04-16T06:31:29.505Z,67.91
2018-04-16T06:33:57.955Z,68.07
2018-04-16T06:36:28.661Z,68.28
2018-04-16T06:38:57.086Z,68.56
2018-04-16T06:41:25.562Z,68.34
2018-04-16T06:43:53.919Z,68.23
2018-04-16T06:46:23.076Z,67.86
2018-04-16T06:48:51.452Z,67.74
2018-04-16T06:51:19.839Z,67.65
2018-04-16T06:53:48.285Z,67.74
2018-04-16T06:56:16.670Z,67.75
2018-04-16T06:58:45.943Z,67.78
2018-04-16T07:01:14.680Z,67.75
2018-04-16T07:03:43.790Z,67.66
2018-04-16T07:06:12.262Z,67.69
2018-04-16T07:08:40.760Z,67.47
2018-04-16T07:11:09.880Z,67.23
2018-04-16T07:13:38.367Z,67.25
2018-04-16T07:16:06.714Z,67.16
2018-04-16T07:18:35.871Z,66.94
2018-04-16T07:21:04.374Z,67.15
2018-04-16T07:23:32.744Z,67.30
2018-04-16T07:26:02.029Z,67.26
2018-04-16T07:28:30.389Z,67.29
2018-04-16T07:30:58.991Z,67.20
2018-04-16T07:33:28.149Z,67.04
2018-04-16T07:35:57.363Z,66.82
2018-04-16T07:38:25.742Z,66.64
2018-04-16T07:40:54.431Z,66.73
2018-04-16T07:43:22.983Z,66.75
2018-04-16T07:45:52.153Z,66.54
2018-04-16T07:48:20.577Z,66.42
2018-04-16T07:50:50.237Z,66.00
2018-04-16T07:53:18.592Z,66.21
2018-04-16T07:55:46.956Z,65.52
2018-04-16T07:58:15.461Z,65.22
2018-04-16T08:00:43.799Z,65.08
2018-04-16T08:03:12.992Z,64.90
2018-04-16T08:05:41.393Z,64.54
2018-04-16T08:08:09.765Z,64.21
2018-04-16T08:10:38.124Z,64.17
2018-04-16T08:13:07.294Z,63.69
2018-04-16T08:15:35.724Z,63.47
2018-04-16T08:18:04.166Z,63.18
2018-04-16T08:20:32.499Z,62.78
2018-04-16T08:23:01.635Z,62.63
2018-04-16T08:25:30.040Z,62.35
2018-04-16T08:27:59.320Z,61.34
2018-04-16T08:30:27.686Z,61.29
2018-04-16T08:32:56.041Z,61.01
2018-04-16T08:35:24.401Z,60.98
2018-04-16T08:37:52.771Z,60.78
2018-04-16T08:40:21.149Z,60.43
2018-04-16T08:42:49.479Z,59.92
2018-04-16T08:45:17.853Z,60.48
2018-04-16T08:47:46.314Z,59.99
2018-04-16T08:50:14.756Z,59.76
2018-04-16T08:52:43.177Z,59.23
2018-04-16T08:55:11.593Z,59.21
2018-04-16T08:57:39.988Z,59.10
2018-04-16T09:00:09.131Z,59.11
2018-04-16T09:02:37.504Z,58.96
2018-04-16T09:05:05.991Z,58.86
2018-04-16T09:07:34.473Z,58.77
2018-04-16T09:10:02.831Z,58.83
2018-04-16T09:12:31.296Z,58.21
2018-04-16T09:15:00.365Z,58.07
2018-04-16T09:17:29.563Z,58.27
2018-04-16T09:19:58.007Z,57.65
2018-04-16T09:22:26.360Z,57.20
2018-04-16T09:24:55.580Z,57.34
2018-04-16T09:27:23.999Z,57.25
2018-04-16T09:29:53.145Z,56.90
2018-04-16T09:32:21.671Z,56.67
2018-04-16T09:34:50.080Z,56.96
2018-04-16T09:37:19.240Z,55.93
2018-04-16T09:39:47.770Z,55.44
2018-04-16T09:42:16.203Z,55.44
2018-04-16T09:44:44.595Z,55.74
2018-04-16T09:47:12.995Z,54.90
2018-04-16T09:49:42.149Z,55.09
2018-04-16T09:52:10.547Z,55.01
2018-04-16T09:54:38.912Z,55.25
2018-04-16T09:57:07.265Z,55.20
2018-04-16T09:59:35.628Z,55.13
2018-04-16T10:02:09.551Z,54.81
2018-04-16T10:04:37.922Z,53.89
2018-04-16T10:07:06.298Z,53.51
2018-04-16T10:09:34.674Z,53.65
2018-04-16T10:12:03.082Z,53.09
2018-04-16T10:14:31.473Z,53.17
2018-04-16T10:16:59.918Z,53.22
2018-04-16T10:19:28.251Z,52.94
2018-04-16T10:21:56.683Z,52.72
2018-04-16T10:24:25.037Z,52.85
2018-04-16T10:26:55.196Z,52.65
2018-04-16T10:29:23.590Z,52.44
2018-04-16T10:31:51.970Z,52.24
2018-04-16T10:34:20.378Z,51.92
2018-04-16T10:36:50.333Z,51.93
2018-04-16T10:39:19.506Z,51.49
2018-04-16T10:41:48.712Z,49.97
2018-04-16T10:44:17.118Z,49.37
2018-04-16T10:46:45.491Z,50.97
2018-04-16T10:49:13.879Z,51.39
2018-04-16T10:51:42.243Z,51.39
2018-04-16T10:54:10.662Z,50.31
2018-04-16T10:56:39.114Z,49.54
2018-04-16T10:59:07.821Z,49.70
2018-04-16T11:01:36.330Z,50.24
2018-04-16T11:04:05.551Z,50.73
2018-04-16T11:06:34.153Z,49.35
2018-04-16T11:09:02.516Z,47.63
2018-04-16T11:11:31.713Z,47.90
2018-04-16T11:14:00.087Z,47.81
2018-04-16T11:16:29.221Z,48.25
2018-04-16T11:18:57.560Z,48.79
2018-04-16T11:21:26.793Z,47.27
2018-04-16T11:23:55.158Z,47.94
2018-04-16T11:26:23.560Z,47.40
2018-04-16T11:28:51.933Z,46.38
2018-04-16T11:31:20.276Z,45.51
2018-04-16T11:33:49.432Z,45.23
2018-04-16T11:36:17.843Z,45.31
2018-04-16T11:38:46.950Z,46.06
2018-04-16T11:41:16.088Z,45.21
2018-04-16T11:43:44.452Z,45.22
2018-04-16T11:46:12.865Z,45.58
2018-04-16T11:48:41.247Z,45.42
2018-04-16T11:51:09.641Z,45.34
2018-04-16T11:53:39.671Z,44.78
2018-04-16T11:56:08.799Z,45.15
2018-04-16T11:58:37.158Z,45.29
2018-04-16T12:01:05.538Z,44.50
2018-04-16T12:03:33.905Z,44.33
2018-04-16T12:06:03.054Z,44.66
2018-04-16T12:08:31.409Z,44.61
2018-04-16T12:10:59.753Z,44.93
2018-04-16T12:13:28.924Z,45.50
2018-04-16T12:15:57.314Z,45.98
2018-04-16T12:18:27.282Z,45.02
2018-04-16T12:20:55.668Z,44.36
2018-04-16T12:23:29.500Z,42.93
2018-04-16T12:25:57.974Z,42.98
2018-04-16T12:28:39.330Z,43.59
2018-04-16T12:31:13.774Z,43.71
2018-04-16T12:33:48.808Z,44.20
2018-04-16T12:36:17.284Z,44.85
2018-04-16T12:38:51.885Z,44.75
2018-04-16T12:41:20.249Z,45.13
2018-04-16T12:43:54.614Z,45.13
2018-04-16T12:46:28.870Z,44.99
2018-04-16T12:49:05.592Z,45.14
2018-04-16T12:51:34.088Z,44.65
2018-04-16T12:54:02.672Z,44.43
2018-04-16T12:56:36.823Z,44.23
2018-04-16T12:59:06.043Z,44.31
2018-04-16T13:01:40.316Z,44.74
2018-04-16T13:04:21.657Z,45.20
2018-04-16T13:06:56.002Z,45.68
2018-04-16T13:09:24.358Z,45.43
2018-04-16T13:11:58.793Z,44.76
2018-04-16T13:14:32.989Z,44.32
2018-04-16T13:17:02.132Z,44.76
2018-04-16T13:19:30.553Z,45.12
2018-04-16T13:22:10.236Z,45.41
2018-04-16T13:24:44.404Z,45.70
2018-04-16T13:27:24.253Z,45.93
2018-04-16T13:29:52.632Z,46.16
2018-04-16T13:32:21.341Z,46.61
2018-04-16T13:34:56.521Z,46.97
2018-04-16T13:37:30.657Z,46.79
2018-04-16T13:39:59.813Z,47.02
2018-04-16T13:42:28.975Z,46.64
2018-04-16T13:44:57.379Z,45.50
2018-04-16T13:47:26.653Z,44.73
2018-04-16T13:50:00.966Z,44.95
2018-04-16T13:52:29.341Z,44.76
2018-04-16T13:55:03.511Z,44.55
2018-04-16T13:57:37.746Z,44.71
2018-04-16T14:00:18.259Z,44.99
2018-04-16T14:02:46.750Z,45.75
2018-04-16T14:05:15.153Z,45.55
2018-04-16T14:07:49.348Z,45.49
2018-04-16T14:10:23.533Z,46.62
2018-04-16T14:12:51.922Z,46.77
2018-04-16T14:15:20.294Z,46.49
2018-04-16T14:17:48.645Z,46.73
2018-04-16T14:20:17.814Z,47.27
2018-04-16T14:22:52.043Z,46.91
2018-04-16T14:25:26.331Z,46.43
2018-04-16T14:27:54.853Z,44.66
2018-04-16T14:30:29.777Z,43.51
2018-04-16T14:32:58.153Z,42.77
2018-04-16T14:35:32.527Z,42.52
2018-04-16T14:38:07.291Z,41.84
2018-04-16T14:40:42.255Z,42.07
2018-04-16T14:43:11.431Z,42.12
2018-04-16T14:45:39.947Z,40.62
2018-04-16T14:48:08.341Z,40.40
2018-04-16T14:54:14.558Z,39.81
2018-04-16T14:56:43.017Z,39.71
2018-04-16T14:59:11.342Z,39.18
2018-04-16T15:01:40.497Z,39.24
2018-04-16T15:04:14.422Z,38.65
2018-04-16T15:06:48.758Z,38.88
2018-04-16T15:09:17.194Z,39.26
2018-04-16T15:11:51.472Z,39.33
2018-04-16T15:14:27.582Z,39.78
2018-04-16T15:16:55.977Z,40.09
2018-04-16T15:19:24.330Z,40.44
2018-04-16T15:21:52.813Z,39.80
2018-04-16T15:24:21.214Z,39.11
2018-04-16T15:26:49.580Z,39.12
2018-04-16T15:29:17.922Z,38.64
2018-04-16T15:31:47.073Z,38.42
2018-04-16T15:34:15.405Z,37.82
2018-04-16T15:36:43.787Z,38.12
2018-04-16T15:39:12.233Z,37.78
2018-04-16T15:41:42.234Z,36.06
2018-04-16T15:44:10.597Z,35.96
2018-04-16T15:46:39.002Z,35.19
2018-04-16T15:49:07.745Z,34.36
2018-04-16T15:51:36.209Z,34.07
2018-04-16T15:54:04.784Z,33.52
2018-04-16T15:56:35.162Z,33.35
2018-04-16T15:59:03.989Z,33.59
2018-04-16T16:01:34.457Z,33.87
2018-04-16T16:04:03.628Z,34.01
2018-04-16T16:06:32.402Z,34.55
2018-04-16T16:09:01.531Z,35.45
2018-04-16T16:11:30.072Z,35.53
2018-04-16T16:13:58.511Z,35.99
2018-04-16T16:16:26.972Z,36.20
2018-04-16T16:18:55.328Z,36.73
2018-04-16T16:21:23.712Z,37.41
2018-04-16T16:23:52.079Z,37.58
2018-04-16T16:26:20.532Z,36.75
2018-04-16T16:28:48.898Z,36.26
2018-04-16T16:31:17.723Z,35.99
2018-04-16T16:33:46.871Z,36.37
2018-04-16T16:36:15.307Z,36.78
2018-04-16T16:38:43.751Z,37.28
2018-04-16T16:41:12.068Z,37.52
2018-04-16T16:43:40.466Z,38.07
2018-04-16T16:46:08.797Z,38.94
2018-04-16T16:48:37.277Z,39.28
2018-04-16T16:51:05.698Z,39.43
2018-04-16T16:53:34.173Z,39.92
2018-04-16T16:56:04.369Z,39.71
2018-04-16T16:58:34.265Z,39.96
2018-04-16T17:01:02.690Z,40.50
2018-04-16T17:03:31.083Z,40.67
2018-04-16T17:05:59.453Z,41.39
2018-04-16T17:08:28.662Z,41.43
2018-04-16T17:10:57.130Z,41.99
2018-04-16T17:13:25.549Z,42.16
2018-04-16T17:15:53.933Z,41.87
2018-04-16T17:18:22.286Z,42.48
2018-04-16T17:20:50.701Z,42.19
2018-04-16T17:23:19.834Z,42.28
2018-04-16T17:25:48.339Z,42.17
2018-04-16T17:28:16.762Z,42.32
2018-04-16T17:30:45.376Z,42.41
2018-04-16T17:33:13.791Z,42.74
2018-04-16T17:35:42.191Z,42.84
2018-04-16T17:38:10.637Z,42.91
2018-04-16T17:40:39.105Z,42.95
2018-04-16T17:43:07.602Z,43.07
2018-04-16T17:45:35.968Z,43.28
2018-04-16T17:48:04.345Z,43.42
2018-04-16T17:50:32.703Z,43.19
2018-04-16T17:53:01.128Z,43.30
2018-04-16T17:55:29.465Z,43.15
2018-04-16T17:57:58.584Z,43.38
2018-04-16T18:00:27.037Z,43.58
2018-04-16T18:02:56.234Z,43.81
2018-04-16T18:05:25.698Z,43.80
2018-04-16T18:07:54.261Z,44.06
2018-04-16T18:10:22.629Z,44.13
2018-04-16T18:12:51.004Z,44.17
2018-04-16T18:15:20.304Z,44.33
2018-04-16T18:17:48.677Z,44.44
2018-04-16T18:20:17.079Z,44.32
2018-04-16T18:22:45.475Z,44.53
2018-04-16T18:25:13.850Z,44.63
2018-04-16T18:27:42.504Z,44.87
2018-04-16T18:30:10.908Z,45.31
2018-04-16T18:32:39.913Z,45.72
2018-04-16T18:35:08.272Z,46.15
2018-04-16T18:37:36.662Z,46.55
2018-04-16T18:40:05.062Z,46.84
2018-04-16T18:42:33.435Z,46.96
2018-04-16T18:45:01.836Z,47.23
2018-04-16T18:47:31.017Z,47.45
2018-04-16T18:50:01.030Z,48.00
2018-04-16T18:52:29.485Z,48.69
2018-04-16T18:54:57.901Z,48.94
2018-04-16T18:57:26.376Z,49.48
2018-04-16T18:59:55.180Z,49.76
2018-04-16T19:02:25.321Z,50.44
2018-04-16T19:04:55.331Z,50.82
2018-04-16T19:07:24.529Z,51.56
2018-04-16T19:09:53.042Z,51.57
2018-04-16T19:12:21.471Z,51.97
2018-04-16T19:14:50.152Z,52.53
2018-04-16T19:17:18.535Z,52.59
2018-04-16T19:19:48.674Z,52.68
2018-04-16T19:22:17.852Z,53.62
2018-04-16T19:27:15.141Z,53.85
2018-04-16T19:29:44.837Z,54.16
2018-04-16T19:32:18.352Z,54.20
2018-04-16T19:34:52.394Z,54.58
2018-04-16T19:37:20.743Z,54.68
2018-04-16T19:39:49.906Z,54.76
2018-04-16T19:42:23.887Z,54.68
2018-04-16T19:44:52.325Z,54.76
2018-04-16T19:47:21.465Z,54.87
2018-04-16T19:50:04.771Z,55.17
2018-04-16T19:52:33.204Z,54.58
2018-04-16T19:55:01.566Z,54.50
2018-04-16T19:57:35.656Z,54.74
2018-04-16T20:00:04.155Z,54.90
2018-04-16T20:02:38.053Z,54.93
2018-04-16T20:05:07.307Z,54.99
2018-04-16T20:07:36.562Z,54.99
2018-04-16T20:10:05.772Z,55.16
2018-04-16T20:12:34.175Z,55.22
2018-04-16T20:15:02.630Z,55.53
2018-04-16T20:17:31.197Z,55.79
2018-04-16T20:19:59.671Z,55.57
2018-04-16T20:22:28.029Z,55.76
2018-04-16T20:24:56.381Z,55.71
2018-04-16T20:27:25.651Z,55.20
2018-04-16T20:29:54.929Z,55.50
2018-04-16T20:32:23.406Z,54.90
2018-04-16T20:34:51.783Z,55.37
2018-04-16T20:37:20.157Z,55.43
2018-04-16T20:39:49.355Z,55.38
2018-04-16T20:42:17.791Z,55.41
2018-04-16T20:44:46.121Z,55.56
2018-04-16T20:47:14.492Z,55.57
2018-04-16T20:49:42.893Z,55.70
2018-04-16T20:52:11.271Z,55.15
2018-04-16T20:54:39.602Z,55.42
2018-04-16T20:57:08.735Z,55.16
2018-04-16T20:59:37.661Z,55.23
2018-04-16T21:02:06.816Z,55.43
2018-04-16T21:04:35.186Z,55.57
2018-04-16T21:07:03.665Z,55.71
2018-04-16T21:09:32.407Z,56.01
2018-04-16T21:12:00.813Z,56.09
2018-04-16T21:14:30.035Z,56.48
2018-04-16T21:16:59.155Z,56.38
2018-04-16T21:19:27.622Z,56.91
2018-04-16T21:21:57.194Z,56.97
2018-04-16T21:24:26.294Z,57.13
2018-04-16T21:26:55.423Z,57.13
2018-04-16T21:29:23.782Z,57.54
2018-04-16T21:31:52.145Z,57.62
2018-04-16T21:34:21.280Z,57.84
2018-04-16T21:36:49.651Z,57.92
2018-04-16T21:39:18.013Z,57.69
2018-04-16T21:41:46.410Z,57.83
2018-04-16T21:44:21.397Z,57.73
2018-04-16T21:46:51.478Z,57.88
2018-04-16T21:49:19.857Z,57.83
2018-04-16T21:51:48.329Z,57.87
2018-04-16T21:54:17.345Z,57.53
2018-04-16T21:56:45.717Z,57.92
2018-04-16T21:59:14.057Z,57.69
2018-04-16T22:01:43.529Z,57.67
2018-04-16T22:04:12.616Z,57.75
2018-04-16T22:06:40.966Z,57.72
2018-04-16T22:09:09.320Z,57.88
2018-04-16T22:11:37.667Z,57.52
2018-04-16T22:14:06.792Z,57.95
2018-04-16T22:16:35.181Z,57.66
2018-04-16T22:19:03.518Z,57.38
2018-04-16T22:21:32.640Z,57.42
2018-04-16T22:24:01.013Z,57.21
2018-04-16T22:26:29.354Z,57.70
2018-04-16T22:28:57.857Z,58.05
2018-04-16T22:31:27.009Z,57.93
2018-04-16T22:33:55.371Z,58.00
2018-04-16T22:36:23.757Z,58.30
2018-04-16T22:38:53.181Z,58.13
2018-04-16T22:41:21.526Z,58.24
2018-04-16T22:43:49.900Z,58.57
2018-04-16T22:46:18.278Z,58.40
2018-04-16T22:48:46.659Z,58.34
2018-04-16T22:51:15.038Z,58.45
2018-04-16T22:53:43.432Z,58.53
2018-04-16T22:56:11.811Z,58.34
2018-04-16T22:58:40.168Z,58.31
2018-04-16T23:01:08.485Z,58.35
2018-04-16T23:03:36.857Z,58.67
2018-04-16T23:06:05.201Z,58.51
2018-04-16T23:08:33.570Z,58.65
2018-04-16T23:11:02.190Z,58.83
2018-04-16T23:13:30.830Z,58.94
2018-04-16T23:15:59.959Z,59.18
2018-04-16T23:18:28.349Z,59.04
2018-04-16T23:20:56.865Z,59.31
2018-04-16T23:23:25.271Z,59.35
2018-04-16T23:25:54.380Z,59.42
2018-04-16T23:28:22.744Z,59.43
2018-04-16T23:30:51.940Z,59.62
2018-04-16T23:33:21.072Z,59.62
2018-04-16T23:35:49.532Z,59.69
2018-04-16T23:38:17.901Z,59.79
2018-04-16T23:40:47.079Z,59.92
2018-04-16T23:43:15.463Z,60.05
2018-04-16T23:45:44.617Z,60.12
2018-04-16T23:48:13.733Z,59.76
2018-04-16T23:50:42.074Z,60.05
2018-04-16T23:53:10.452Z,60.10
2018-04-16T23:55:38.809Z,60.10
2018-04-16T23:58:07.211Z,59.95
